Time;durP1;ratioP1;P1;durP2;ratioP2;P2;SDS_P1;SDS_P2;PMS_P1;PMS_P2;Temp;Humidity;BMP_temperature;BMP_pressure;BME280_temperature;BME280_humidity;BME280_pressure;Samples;Min_cycle;Max_cycle;Signal;HPM_P1;HPM_P2
2022/06/26 00:01:46;;;;;;;22.48;10.63;;;;;;;22.69;54.41;93264.75;4752394;30;20373;-93
2022/06/26 00:04:12;;;;;;;23.55;10.35;;;;;;;22.68;54.31;93268.78;4755700;30;20473;-93
2022/06/26 00:06:37;;;;;;;27.70;11.18;;;;;;;22.70;54.31;93268.25;4735279;30;20032;-93
2022/06/26 00:09:03;;;;;;;17.20;9.23;;;;;;;22.68;54.21;93268.06;4750147;30;20438;-93
2022/06/26 00:11:29;;;;;;;22.25;10.02;;;;;;;22.68;54.34;93268.06;4734922;30;20094;-93
2022/06/26 00:13:54;;;;;;;23.17;9.57;;;;;;;22.67;54.22;93272.09;4750014;30;20246;-93
2022/06/26 00:16:21;;;;;;;20.23;10.13;;;;;;;22.68;54.44;93271.56;4750072;30;20509;-96
2022/06/26 00:18:47;;;;;;;20.27;10.15;;;;;;;22.68;54.40;93277.06;4749108;30;20093;-93
2022/06/26 00:21:14;;;;;;;21.77;9.57;;;;;;;22.68;54.49;93270.81;4763914;30;20059;-93
2022/06/26 00:23:39;;;;;;;21.05;9.63;;;;;;;22.67;54.21;93274.84;4749907;30;20043;-92
2022/06/26 00:26:06;;;;;;;19.25;9.20;;;;;;;22.66;54.40;93274.09;4749933;30;20024;-93
2022/06/26 00:28:31;;;;;;;20.55;9.73;;;;;;;22.66;54.47;93267.84;4749273;30;20564;-94
2022/06/26 00:30:56;;;;;;;20.15;9.68;;;;;;;22.65;54.38;93269.88;4749173;30;20037;-92
2022/06/26 00:33:22;;;;;;;16.48;8.75;;;;;;;22.66;54.28;93265.09;4748834;30;20123;-93
2022/06/26 00:35:47;;;;;;;20.00;9.07;;;;;;;22.66;54.34;93262.34;4749544;30;20043;-94
2022/06/26 00:38:15;;;;;;;18.85;8.98;;;;;;;22.66;54.18;93274.09;4748984;30;20028;-93
2022/06/26 00:40:42;;;;;;;21.48;8.90;;;;;;;22.65;54.00;93272.63;4734584;30;20032;-93
2022/06/26 00:43:07;;;;;;;20.55;9.15;;;;;;;22.67;54.41;93269.34;4749344;30;20179;-94
2022/06/26 00:45:33;;;;;;;18.42;8.75;;;;;;;22.66;54.23;93265.09;4748724;30;20079;-92
2022/06/26 00:47:58;;;;;;;22.75;9.75;;;;;;;22.66;54.24;93267.84;4734009;30;20028;-93
2022/06/26 00:50:24;;;;;;;19.45;8.43;;;;;;;22.64;54.17;93270.41;4749088;30;20075;-93
2022/06/26 00:52:50;;;;;;;20.58;8.68;;;;;;;22.63;54.25;93279.97;4748022;30;20036;-93
2022/06/26 00:55:15;;;;;;;18.77;8.40;;;;;;;22.64;54.32;93270.41;4748951;30;20405;-93
2022/06/26 00:57:41;;;;;;;18.63;8.90;;;;;;;22.64;54.10;93276.66;4748704;30;20126;-92
2022/06/26 01:00:07;;;;;;;17.15;8.65;;;;;;;22.62;54.17;93272.97;4748611;30;20039;-93
2022/06/26 01:02:32;;;;;;;16.85;7.80;;;;;;;22.62;54.07;93262.69;4734650;30;20524;-94
2022/06/26 01:04:57;;;;;;;17.52;7.68;;;;;;;22.64;54.26;93264.91;4749519;30;20039;-92
2022/06/26 01:07:23;;;;;;;13.82;7.00;;;;;;;22.63;54.14;93266.94;4730722;30;20118;-93
2022/06/26 01:09:49;;;;;;;13.55;7.60;;;;;;;22.62;54.38;93267.47;4755887;30;20035;-95
2022/06/26 01:12:14;;;;;;;17.88;8.68;;;;;;;22.62;54.42;93261.94;4766158;30;20039;-94
2022/06/26 01:14:40;;;;;;;16.33;7.63;;;;;;;22.62;54.06;93262.69;4781601;30;20039;-92
2022/06/26 01:17:05;;;;;;;16.67;8.10;;;;;;;22.62;54.25;93267.47;4748170;30;20056;-93
2022/06/26 01:19:31;;;;;;;15.90;7.07;;;;;;;22.60;54.36;93270.75;4774268;29;20051;-93
2022/06/26 01:21:57;;;;;;;12.50;7.18;;;;;;;22.61;54.45;93277.75;4751524;30;20036;-93
2022/06/26 01:24:22;;;;;;;15.88;8.15;;;;;;;22.60;54.07;93272.78;4748757;30;20635;-93
2022/06/26 01:26:48;;;;;;;16.17;7.45;;;;;;;22.61;54.12;93272.22;4777996;30;20095;-93
2022/06/26 01:29:13;;;;;;;15.77;8.18;;;;;;;22.60;54.20;93270.75;4748503;30;20093;-93
2022/06/26 01:31:39;;;;;;;15.35;7.47;;;;;;;22.59;54.26;93269.28;4747434;30;20036;-93
2022/06/26 01:34:06;;;;;;;14.23;6.93;;;;;;;22.58;54.26;93271.31;4778352;29;20040;-94
2022/06/26 01:36:32;;;;;;;11.88;6.13;;;;;;;22.58;54.20;93268.53;4748791;30;20047;-93
2022/06/26 01:38:57;;;;;;;14.15;6.72;;;;;;;22.59;54.25;93266.53;4748514;30;20032;-93
2022/06/26 01:41:23;;;;;;;13.60;6.68;;;;;;;22.59;54.20;93266.53;4748569;30;20036;-94
2022/06/26 01:43:48;;;;;;;14.15;6.80;;;;;;;22.58;54.20;93265.78;4748721;30;20396;-93
2022/06/26 01:46:14;;;;;;;15.32;7.15;;;;;;;22.58;54.19;93271.31;4748268;30;20086;-93
2022/06/26 01:48:39;;;;;;;13.18;6.22;;;;;;;22.59;54.18;93269.28;4733529;30;20029;-93
2022/06/26 01:51:06;;;;;;;13.13;6.32;;;;;;;22.59;53.91;93274.78;4748554;30;20530;-93
2022/06/26 01:53:32;;;;;;;13.50;6.90;;;;;;;22.56;54.14;93268.34;4733912;30;20395;-95
2022/06/26 01:56:00;;;;;;;13.80;7.13;;;;;;;22.57;54.11;93274.59;4748509;30;20025;-92
2022/06/26 01:58:26;;;;;;;12.68;6.88;;;;;;;22.56;54.26;93262.84;4740413;30;20574;-95
2022/06/26 02:00:53;;;;;;;14.07;6.72;;;;;;;22.55;54.23;93264.13;4780561;30;20056;-92
2022/06/26 02:03:20;;;;;;;10.48;6.25;;;;;;;22.57;54.21;93277.34;4749636;30;20373;-93
2022/06/26 02:05:46;;;;;;;11.93;6.47;;;;;;;22.56;54.27;93276.59;4769057;30;20032;-93
2022/06/26 02:08:12;;;;;;;11.40;6.53;;;;;;;22.56;53.98;93276.59;4783052;30;20429;-93
2022/06/26 02:13:37;;;;;;;14.30;6.40;;;;;;;22.55;54.23;93280.63;4772129;30;20097;-93
2022/06/26 02:16:02;;;;;;;;;;;;;;;22.57;54.04;93280.84;4787123;30;20040;-92
2022/06/26 02:18:28;;;;;;;11.30;5.90;;;;;;;22.56;54.05;93281.38;4786351;30;19932;-94
2022/06/26 02:20:53;;;;;;;12.70;5.88;;;;;;;22.54;53.94;93286.69;4786238;30;20322;-93
2022/06/26 02:23:18;;;;;;;11.35;5.88;;;;;;;22.53;54.13;93285.94;4770242;30;20027;-92
2022/06/26 02:25:44;;;;;;;11.05;5.32;;;;;;;22.52;54.10;93292.75;4771494;30;20036;-93
2022/06/26 02:28:10;;;;;;;14.98;6.00;;;;;;;22.54;54.30;93294.97;4786748;30;20344;-94
2022/06/26 02:30:35;;;;;;;10.60;5.38;;;;;;;22.53;53.99;93299.00;4756359;30;20047;-96
2022/06/26 02:33:00;;;;;;;11.40;5.50;;;;;;;22.53;54.13;93302.47;4757170;30;20039;-93
2022/06/26 02:35:26;;;;;;;9.13;4.95;;;;;;;22.53;53.98;93299.72;4771170;30;20069;-94
2022/06/26 02:37:52;;;;;;;11.32;5.95;;;;;;;22.54;54.16;93306.72;4786364;30;20031;-93
2022/06/26 02:40:20;;;;;;;10.65;5.85;;;;;;;22.53;54.44;93310.00;4771682;30;20036;-93
2022/06/26 02:42:45;;;;;;;12.43;5.55;;;;;;;22.52;54.10;93309.28;4786489;30;20040;-92
2022/06/26 02:45:11;;;;;;;10.80;5.70;;;;;;;22.52;54.14;93308.53;4786452;30;20035;-93
2022/06/26 02:47:36;;;;;;;12.70;6.00;;;;;;;22.52;54.14;93305.78;4756978;30;20519;-92
2022/06/26 02:50:03;;;;;;;12.15;5.57;;;;;;;22.51;54.01;93293.31;4738915;30;20507;-92
2022/06/26 02:52:29;;;;;;;10.57;5.82;;;;;;;22.51;54.18;93299.56;4767847;30;20036;-92
2022/06/26 02:54:54;;;;;;;9.88;5.78;;;;;;;22.51;54.09;93298.81;4738342;30;20035;-92
2022/06/26 02:57:20;;;;;;;13.38;5.78;;;;;;;22.52;54.14;93297.50;4752879;30;20043;-93
2022/06/26 02:59:45;;;;;;;11.95;5.90;;;;;;;22.51;54.07;93301.56;4753042;30;20039;-93
2022/06/26 03:02:11;;;;;;;11.63;5.10;;;;;;;22.50;54.36;93298.06;4752853;30;20040;-93
2022/06/26 03:04:36;;;;;;;9.40;5.40;;;;;;;22.52;54.32;93300.25;4765746;30;20032;-93
2022/06/26 03:07:02;;;;;;;11.73;5.20;;;;;;;22.51;53.97;93304.31;4752827;30;20028;-92
2022/06/26 03:09:27;;;;;;;9.85;5.20;;;;;;;22.51;54.18;93307.09;4783387;30;20143;-93
2022/06/26 03:11:52;;;;;;;8.40;4.88;;;;;;;22.50;54.09;93306.34;4782595;29;20115;-93
2022/06/26 03:14:18;;;;;;;8.80;4.97;;;;;;;22.50;54.07;93303.59;4753525;30;20028;-92
2022/06/26 03:16:43;;;;;;;8.88;4.85;;;;;;;22.50;53.96;93311.84;4749774;30;20044;-93
2022/06/26 03:19:09;;;;;;;11.90;5.45;;;;;;;22.49;54.25;93310.38;4750615;30;20036;-92
2022/06/26 03:21:35;;;;;;;9.30;4.75;;;;;;;22.51;54.02;93315.34;4749844;30;20047;-93
2022/06/26 03:24:03;;;;;;;8.98;4.80;;;;;;;22.49;53.93;93309.63;4735388;30;20036;-93
2022/06/26 03:26:35;;;;;;;10.10;5.10;;;;;;;22.50;53.99;93314.59;4721691;30;20044;-93
2022/06/26 03:29:01;;;;;;;9.20;4.50;;;;;;;22.51;53.66;93316.09;4721214;30;20036;-92
2022/06/26 03:31:27;;;;;;;10.73;4.80;;;;;;;22.50;53.87;93322.88;4720663;30;20048;-93
2022/06/26 03:33:52;;;;;;;8.80;4.65;;;;;;;22.52;53.73;93312.03;4721818;30;20103;-94
2022/06/26 03:36:18;;;;;;;8.43;4.55;;;;;;;22.54;53.96;93317.00;4735929;30;20035;-93
2022/06/26 03:38:43;;;;;;;8.40;4.60;;;;;;;22.57;53.79;93321.44;4735498;30;20036;-93
2022/06/26 03:41:09;;;;;;;10.30;5.03;;;;;;;22.58;53.85;93322.91;4735723;30;20040;-93
2022/06/26 03:43:35;;;;;;;6.85;3.78;;;;;;;22.60;53.70;93322.38;4721352;30;20160;-93
2022/06/26 03:46:00;;;;;;;9.50;4.43;;;;;;;22.59;53.53;93318.88;4735774;30;20036;-93
2022/06/26 03:48:25;;;;;;;8.85;4.43;;;;;;;22.62;53.50;93330.84;4735848;30;20542;-93
2022/06/26 03:50:51;;;;;;;9.07;4.40;;;;;;;22.62;53.41;93326.06;4750161;30;20028;-94
2022/06/26 03:53:17;;;;;;;7.60;4.38;;;;;;;22.63;53.20;93324.03;4735929;30;20040;-93
2022/06/26 03:55:43;;;;;;;7.00;4.00;;;;;;;22.62;53.41;93328.81;4737344;30;20048;-93
2022/06/26 03:58:09;;;;;;;8.80;4.60;;;;;;;22.62;53.51;93328.06;4751288;30;20032;-92
2022/06/26 04:00:34;;;;;;;7.70;4.47;;;;;;;22.63;53.30;93333.06;4732063;30;20055;-93
2022/06/26 04:03:04;;;;;;;7.05;3.65;;;;;;;22.63;53.32;93335.06;4716998;30;20068;-93
2022/06/26 04:05:29;;;;;;;7.43;4.43;;;;;;;22.63;53.53;93330.28;4715486;30;20448;-93
2022/06/26 04:07:55;;;;;;;6.60;3.70;;;;;;;22.64;53.46;93331.03;4714973;30;20040;-94
2022/06/26 04:10:21;;;;;;;6.75;3.95;;;;;;;22.65;53.27;93335.28;4730207;30;20033;-93
2022/06/26 04:12:47;;;;;;;6.88;3.90;;;;;;;22.66;53.41;93336.75;4732163;30;20036;-92
2022/06/26 04:15:12;;;;;;;7.18;3.65;;;;;;;22.66;53.42;93340.25;4732772;30;20168;-93
2022/06/26 04:17:38;;;;;;;7.88;3.90;;;;;;;22.68;53.32;93339.69;4732016;30;20052;-93
2022/06/26 04:20:04;;;;;;;10.57;3.95;;;;;;;22.68;53.52;93347.97;4717642;30;20048;-93
2022/06/26 04:22:29;;;;;;;7.22;3.38;;;;;;;22.68;53.07;93348.72;4732123;30;20056;-93
2022/06/26 04:24:54;;;;;;;6.25;3.33;;;;;;;22.69;53.24;93349.44;4732656;30;20032;-93
2022/06/26 04:27:20;;;;;;;8.20;3.85;;;;;;;22.71;53.32;93349.66;4732651;30;20604;-93
2022/06/26 04:29:46;;;;;;;6.45;3.67;;;;;;;22.72;53.05;93340.09;4732263;30;20067;-93
2022/06/26 04:32:12;;;;;;;4.97;3.17;;;;;;;22.74;53.24;93345.78;4746313;30;20052;-93
2022/06/26 04:34:39;;;;;;;6.97;3.60;;;;;;;22.74;53.03;93351.28;4721005;30;20108;-93
2022/06/26 04:37:08;;;;;;;6.65;3.28;;;;;;;22.74;53.08;93346.53;4735738;30;20035;-93
2022/06/26 04:39:33;;;;;;;5.25;3.38;;;;;;;22.75;53.23;93350.03;4750734;30;20563;-93
2022/06/26 04:41:58;;;;;;;5.05;2.80;;;;;;;22.75;52.59;93345.25;4735805;30;20039;-93
2022/06/26 04:44:24;;;;;;;5.78;3.10;;;;;;;22.76;52.98;93348.75;4735365;30;20158;-92
2022/06/26 04:46:50;;;;;;;5.60;3.38;;;;;;;22.78;53.03;93346.22;4750097;30;20495;-93
2022/06/26 04:49:16;;;;;;;6.95;3.30;;;;;;;22.78;52.83;93346.97;4720556;30;20067;-94
2022/06/26 04:51:41;;;;;;;6.47;3.25;;;;;;;22.81;52.85;93356.16;4720780;30;20392;-93
2022/06/26 04:54:07;;;;;;;5.22;3.03;;;;;;;22.81;52.96;93361.69;4735757;30;20039;-93
2022/06/26 04:56:33;;;;;;;7.32;3.10;;;;;;;22.84;52.69;93349.56;4720659;30;20032;-93
2022/06/26 04:58:58;;;;;;;6.15;3.28;;;;;;;22.85;52.53;93356.56;4749294;30;20163;-92
2022/06/26 05:01:25;;;;;;;6.05;3.30;;;;;;;22.84;52.71;93364.09;4745316;30;20117;-93
2022/06/26 05:03:51;;;;;;;5.13;2.90;;;;;;;22.87;52.65;93351.25;4709353;30;20092;-93
2022/06/26 05:06:16;;;;;;;4.90;2.97;;;;;;;22.88;52.72;93358.97;4747041;30;20366;-93
2022/06/26 05:08:42;;;;;;;5.18;2.95;;;;;;;22.89;52.46;93367.97;4746667;30;20040;-93
2022/06/26 05:11:07;;;;;;;4.72;2.80;;;;;;;22.91;52.42;93370.94;4750372;30;20058;-93
2022/06/26 05:13:32;;;;;;;5.60;2.92;;;;;;;22.90;52.62;93367.44;4749867;30;20044;-93
2022/06/26 05:15:58;;;;;;;5.30;2.92;;;;;;;22.93;52.43;93362.13;4735241;30;20517;-93
2022/06/26 05:18:24;;;;;;;5.63;3.20;;;;;;;22.93;52.76;93365.63;4776359;30;20531;-93
2022/06/26 05:20:49;;;;;;;5.50;2.80;;;;;;;22.96;52.58;93374.81;4781862;30;20040;-92
2022/06/26 05:23:16;;;;;;;5.40;2.33;;;;;;;22.96;52.60;93381.06;4781761;30;20092;-93
2022/06/26 05:25:42;;;;;;;5.28;2.63;;;;;;;22.99;52.50;93384.75;4782532;30;20036;-93
2022/06/26 05:28:07;;;;;;;4.68;2.70;;;;;;;23.00;52.44;93386.25;4781609;30;20032;-92
2022/06/26 05:30:33;;;;;;;4.68;2.50;;;;;;;22.99;52.46;93382.75;4780897;30;20126;-93
2022/06/26 05:32:58;;;;;;;5.05;2.95;;;;;;;23.01;52.54;93390.47;4781525;30;20031;-94
2022/06/26 05:35:24;;;;;;;4.70;2.65;;;;;;;23.01;52.34;93390.47;4780565;30;20368;-94
2022/06/26 05:37:49;;;;;;;3.10;2.40;;;;;;;23.02;52.37;93375.41;4750806;30;20032;-94
2022/06/26 05:40:15;;;;;;;3.72;2.45;;;;;;;23.03;52.49;93382.41;4780972;30;20472;-93
2022/06/26 05:42:40;;;;;;;4.65;2.30;;;;;;;23.04;52.37;93375.59;4765604;30;20435;-93
2022/06/26 05:45:06;;;;;;;4.25;2.22;;;;;;;23.06;52.26;93378.56;4765746;30;20032;-93
2022/06/26 05:47:32;;;;;;;2.88;2.00;;;;;;;23.08;52.38;93385.00;4780520;30;20031;-94
2022/06/26 05:49:57;;;;;;;4.25;2.33;;;;;;;23.09;52.20;93380.25;4780636;30;20036;-92
2022/06/26 05:52:23;;;;;;;4.30;2.38;;;;;;;23.09;52.34;93389.25;4781177;30;20111;-95
2022/06/26 05:54:48;;;;;;;3.78;2.20;;;;;;;23.12;52.27;93395.69;4765810;30;20032;-93
2022/06/26 05:57:14;;;;;;;4.68;2.50;;;;;;;23.12;52.31;93392.94;4780859;30;20046;-94
2022/06/26 05:59:40;;;;;;;3.75;2.20;;;;;;;23.11;52.37;93397.72;4781190;30;20059;-94
2022/06/26 06:02:06;;;;;;;3.75;2.53;;;;;;;23.13;52.12;93395.16;4764903;30;20470;-94
2022/06/26 06:04:31;;;;;;;4.07;2.35;;;;;;;23.13;52.32;93399.94;4748135;30;20024;-93
2022/06/26 06:06:57;;;;;;;5.22;2.53;;;;;;;23.17;52.27;93406.56;4777642;30;20046;-93
2022/06/26 06:09:22;;;;;;;5.55;2.60;;;;;;;23.17;52.04;93403.81;4778150;30;20085;-93
2022/06/26 06:11:48;;;;;;;3.13;1.98;;;;;;;23.19;52.17;93406.75;4777875;29;20081;-95
2022/06/26 06:14:13;;;;;;;3.45;1.80;;;;;;;23.19;52.24;93401.25;4747978;30;20101;-93
2022/06/26 06:16:38;;;;;;;4.35;2.85;;;;;;;23.22;52.00;93402.19;4747348;30;20032;-93
2022/06/26 06:19:04;;;;;;;5.43;2.35;;;;;;;23.21;51.91;93409.72;4733130;30;20481;-93
2022/06/26 06:21:29;;;;;;;3.95;1.90;;;;;;;23.22;52.01;93410.47;4719109;30;20032;-93
2022/06/26 06:23:55;;;;;;;3.63;1.98;;;;;;;23.22;51.98;93407.69;4747517;30;20031;-96
2022/06/26 06:26:20;;;;;;;3.70;2.22;;;;;;;23.25;52.11;93417.66;4719150;30;20389;-93
2022/06/26 06:28:46;;;;;;;2.88;1.98;;;;;;;23.24;52.11;93410.66;4748167;30;20031;-93
2022/06/26 06:31:11;;;;;;;3.90;2.05;;;;;;;23.25;51.72;93420.41;4718480;30;20374;-93
2022/06/26 06:33:37;;;;;;;3.15;1.88;;;;;;;23.27;51.91;93422.63;4719171;30;20028;-93
2022/06/26 06:36:02;;;;;;;2.97;2.15;;;;;;;23.28;52.17;93421.34;4732949;30;20040;-93
2022/06/26 06:38:28;;;;;;;4.22;2.08;;;;;;;23.29;52.06;93428.34;4747917;30;20447;-94
2022/06/26 06:40:53;;;;;;;2.78;1.98;;;;;;;23.30;52.13;93432.56;4718891;30;20029;-94
2022/06/26 06:43:20;;;;;;;2.80;1.80;;;;;;;23.33;51.88;93428.75;4733808;30;20047;-93
2022/06/26 06:45:45;;;;;;;4.15;2.20;;;;;;;23.31;51.79;93432.03;4718773;30;20032;-93
2022/06/26 06:48:11;;;;;;;3.55;2.13;;;;;;;23.33;52.03;93429.47;4747733;30;20184;-93
2022/06/26 06:50:36;;;;;;;2.45;1.77;;;;;;;23.35;51.71;93431.69;4734243;30;20032;-94
2022/06/26 06:53:02;;;;;;;3.15;1.85;;;;;;;23.36;51.80;93438.69;4751565;30;20043;-94
2022/06/26 06:55:27;;;;;;;2.88;1.60;;;;;;;23.35;51.77;93437.94;4736661;30;20028;-93
2022/06/26 06:57:56;;;;;;;2.10;1.67;;;;;;;23.36;51.98;93436.66;4736695;30;20622;-92
2022/06/26 07:00:22;;;;;;;5.10;2.28;;;;;;;23.40;51.89;93441.81;4735655;30;20059;-93
2022/06/26 07:02:47;;;;;;;2.55;1.92;;;;;;;23.39;51.73;93432.06;4722989;30;20060;-94
2022/06/26 07:05:13;;;;;;;2.63;2.10;;;;;;;23.41;51.81;93435.03;4718886;30;20059;-93
2022/06/26 07:07:38;;;;;;;3.00;1.80;;;;;;;23.41;51.77;93437.78;4747561;30;20028;-93
2022/06/26 07:10:04;;;;;;;4.28;1.90;;;;;;;23.41;51.71;93446.78;4748484;30;20044;-93
2022/06/26 07:12:29;;;;;;;1.83;1.60;;;;;;;23.41;51.68;93444.03;4711594;30;20042;-96
2022/06/26 07:14:55;;;;;;;2.50;1.75;;;;;;;23.43;51.96;93444.22;4750841;30;20039;-92
2022/06/26 07:17:22;;;;;;;3.08;1.90;;;;;;;23.43;51.64;93438.72;4746734;30;20059;-93
2022/06/26 07:19:48;;;;;;;2.58;1.52;;;;;;;23.43;51.80;93444.22;4783271;30;20035;-93
2022/06/26 07:22:13;;;;;;;2.70;1.75;;;;;;;23.45;51.80;93449.22;4783136;30;20048;-93
2022/06/26 07:24:39;;;;;;;2.08;1.70;;;;;;;23.45;51.67;93441.66;4768340;30;20522;-93
2022/06/26 07:27:04;;;;;;;2.88;1.67;;;;;;;23.45;51.67;93440.94;4753197;30;20152;-92
2022/06/26 07:29:30;;;;;;;3.15;1.85;;;;;;;23.45;51.69;93449.22;4783275;30;20039;-93
2022/06/26 07:31:56;;;;;;;3.63;1.88;;;;;;;23.45;51.79;93449.94;4782848;30;20036;-92
2022/06/26 07:34:23;;;;;;;3.88;2.05;;;;;;;23.45;51.90;93443.69;4783210;30;20035;-94
2022/06/26 07:36:49;;;;;;;2.72;1.70;;;;;;;23.45;51.83;93454.72;4752778;30;20562;-93
2022/06/26 07:39:16;;;;;;;3.53;1.85;;;;;;;23.45;51.81;93446.44;4783196;30;20032;-93
2022/06/26 07:41:42;;;;;;;3.38;1.95;;;;;;;23.47;51.85;93435.63;4782980;30;20047;-95
2022/06/26 07:44:07;;;;;;;2.38;1.92;;;;;;;23.47;51.78;93435.63;4783346;30;20376;-93
2022/06/26 07:46:34;;;;;;;3.60;1.92;;;;;;;23.46;51.81;93442.41;4768470;30;20036;-93
2022/06/26 07:49:00;;;;;;;3.22;1.75;;;;;;;23.45;51.84;93438.19;4767874;30;20032;-94
2022/06/26 07:51:26;;;;;;;3.35;2.03;;;;;;;23.44;52.29;93434.69;4782908;30;20031;-94
2022/06/26 07:53:51;;;;;;;3.45;1.55;;;;;;;23.44;52.03;93442.97;4753051;30;20364;-93
2022/06/26 07:56:17;;;;;;;1.90;1.38;;;;;;;23.44;51.90;93440.19;4783076;30;20658;-93
2022/06/26 07:58:43;;;;;;;2.58;1.40;;;;;;;23.45;51.79;93440.94;4782581;30;20042;-93
2022/06/26 08:01:09;;;;;;;2.47;1.40;;;;;;;23.44;51.88;93448.47;4781329;29;20076;-93
2022/06/26 08:03:35;;;;;;;2.92;1.63;;;;;;;23.45;51.91;93449.22;4776052;30;20039;-94
2022/06/26 08:06:00;;;;;;;4.43;1.70;;;;;;;23.44;51.87;93453.25;4735703;30;20044;-93
2022/06/26 08:08:26;;;;;;;2.47;1.88;;;;;;;23.44;51.94;93450.50;4735179;30;20052;-94
2022/06/26 08:10:51;;;;;;;4.13;1.65;;;;;;;23.43;52.07;93444.22;4735239;30;20036;-93
2022/06/26 08:13:17;;;;;;;2.90;1.63;;;;;;;23.43;52.06;93440.75;4745061;30;20035;-93
2022/06/26 08:15:43;;;;;;;2.58;1.73;;;;;;;23.43;52.02;93438.72;4782393;30;20038;-93
2022/06/26 08:18:09;;;;;;;2.92;1.50;;;;;;;23.44;51.98;93445.72;4782175;30;20213;-93
2022/06/26 08:20:35;;;;;;;2.47;1.50;;;;;;;23.44;51.79;93440.19;4752535;30;20036;-93
2022/06/26 08:23:02;;;;;;;3.90;1.60;;;;;;;23.44;51.92;93439.47;4767633;30;20089;-94
2022/06/26 08:25:27;;;;;;;2.67;1.60;;;;;;;23.44;52.14;93439.47;4767651;30;20093;-94
2022/06/26 08:27:52;;;;;;;2.20;1.50;;;;;;;23.44;51.79;93442.22;4754727;30;20024;-94
2022/06/26 08:30:18;;;;;;;3.35;1.45;;;;;;;23.46;52.17;93440.41;4785409;30;20050;-94
2022/06/26 08:32:46;;;;;;;8.07;2.10;;;;;;;23.44;52.07;93445.72;4770270;30;20059;-94
2022/06/26 08:35:14;;;;;;;2.92;1.58;;;;;;;23.43;52.07;93437.97;4770860;30;20051;-94
2022/06/26 08:37:48;;;;;;;2.13;1.60;;;;;;;23.42;51.99;93431.72;4737755;30;20044;-93
2022/06/26 08:40:20;;;;;;;6.45;2.03;;;;;;;23.44;52.31;93447.72;4754006;30;20627;-93
2022/06/26 08:42:52;;;;;;;13.13;2.00;;;;;;;23.45;52.17;93449.22;4723606;30;20051;-93
2022/06/26 08:45:26;;;;;;;6.53;1.75;;;;;;;23.41;52.37;93455.06;4703306;30;20049;-93
2022/06/26 08:47:56;;;;;;;6.50;2.30;;;;;;;23.42;52.02;93455.81;4701913;30;20056;-95
2022/06/26 08:50:24;;;;;;;4.10;1.83;;;;;;;23.41;52.21;93457.84;4700545;30;20541;-92
2022/06/26 08:52:52;;;;;;;3.85;2.08;;;;;;;23.42;52.33;93447.53;4701186;30;20037;-91
2022/06/26 08:55:19;;;;;;;13.40;2.22;;;;;;;23.40;52.38;93453.59;4715251;30;20053;-92
2022/06/26 08:57:45;;;;;;;3.75;1.60;;;;;;;23.39;52.09;93454.88;4685028;30;20072;-91
2022/06/26 09:00:14;;;;;;;5.15;1.70;;;;;;;23.39;52.15;93465.16;4728563;30;20044;-91
2022/06/26 09:02:40;;;;;;;6.68;1.90;;;;;;;23.38;52.21;93456.19;4680719;30;20123;-91
2022/06/26 09:05:12;;;;;;;2.15;1.60;;;;;;;23.36;52.24;93463.53;4669130;30;20046;-92
2022/06/26 09:07:47;;;;;;;2.95;1.50;;;;;;;23.36;52.29;93455.25;4682431;30;20059;-92
2022/06/26 09:10:17;;;;;;;2.97;2.00;;;;;;;23.35;52.40;93460.03;4663724;30;20412;-91
2022/06/26 09:12:43;;;;;;;3.72;1.77;;;;;;;23.35;52.49;93468.28;4680512;30;20046;-92
2022/06/26 09:15:16;;;;;;;3.20;1.75;;;;;;;23.34;52.40;93463.31;4696884;30;20084;-91
2022/06/26 09:17:52;;;;;;;3.05;1.95;;;;;;;23.35;52.28;93462.03;4714835;30;20163;-92
2022/06/26 09:20:18;;;;;;;3.25;1.77;;;;;;;23.35;52.42;93460.03;4727934;30;20045;-92
2022/06/26 09:22:55;;;;;;;3.95;1.73;;;;;;;23.32;52.33;93461.09;4745682;30;20056;-91
2022/06/26 09:25:21;;;;;;;2.60;1.55;;;;;;;23.34;52.57;93460.56;4694850;30;20051;-92
2022/06/26 09:27:46;;;;;;;3.42;1.65;;;;;;;23.34;52.53;93463.31;4750258;30;20036;-91
2022/06/26 09:30:13;;;;;;;2.63;1.70;;;;;;;23.33;52.19;93456.31;4735373;30;20036;-91
2022/06/26 09:32:39;;;;;;;3.58;1.63;;;;;;;23.32;52.60;93463.84;4750288;30;20072;-92
2022/06/26 09:35:06;;;;;;;1.70;1.20;;;;;;;23.32;52.63;93446.56;4735191;30;20048;-92
2022/06/26 09:37:36;;;;;;;1.77;1.27;;;;;;;23.32;52.30;93452.09;4723543;30;20116;-92
2022/06/26 09:40:06;;;;;;;3.70;1.98;;;;;;;23.30;52.65;93449.88;4729178;30;20563;-91
2022/06/26 09:42:33;;;;;;;3.45;1.65;;;;;;;23.33;52.30;93446.03;4732410;30;20413;-91
2022/06/26 09:45:01;;;;;;;3.22;1.60;;;;;;;23.31;52.64;93453.38;4746944;30;20468;-91
2022/06/26 09:47:28;;;;;;;3.28;1.40;;;;;;;23.32;52.51;93450.06;4745807;30;20041;-91
2022/06/26 09:49:55;;;;;;;2.45;1.30;;;;;;;23.33;52.42;93448.03;4732360;30;20139;-91
2022/06/26 09:52:23;;;;;;;2.25;1.50;;;;;;;23.31;52.30;93445.84;4717326;30;20580;-91
2022/06/26 09:54:49;;;;;;;3.33;1.63;;;;;;;23.31;52.45;93445.84;4717131;30;20049;-92
2022/06/26 09:57:15;;;;;;;2.58;1.25;;;;;;;23.32;52.61;93446.56;4701764;30;20486;-92
2022/06/26 09:59:41;;;;;;;3.92;1.48;;;;;;;23.32;52.63;93436.28;4703310;30;20069;-92
2022/06/26 10:07:53;;;;;;;1.90;1.30;;;;;;;23.33;52.66;93445.28;4731655;30;20121;-91
2022/06/26 10:10:25;;;;;;;2.65;1.67;;;;;;;23.29;52.66;93442.88;4717428;30;20162;-92
2022/06/26 10:12:56;;;;;;;2.85;1.42;;;;;;;23.30;52.74;93438.84;4730871;30;20044;-91
2022/06/26 10:15:31;;;;;;;2.15;1.35;;;;;;;23.30;52.81;93443.63;4709254;30;20087;-91
2022/06/26 10:18:06;;;;;;;2.63;1.40;;;;;;;23.30;52.78;93440.84;4661950;30;20053;-92
2022/06/26 10:20:33;;;;;;;2.05;1.10;;;;;;;23.31;52.75;93443.06;4677475;30;20047;-91
2022/06/26 10:22:59;;;;;;;2.15;1.30;;;;;;;23.31;52.75;93443.06;4662809;30;20082;-92
2022/06/26 10:25:27;;;;;;;2.72;1.15;;;;;;;23.31;52.77;93440.31;4651243;30;20059;-92
2022/06/26 10:27:52;;;;;;;2.95;1.48;;;;;;;23.32;52.74;93452.81;4666867;30;20042;-91
2022/06/26 10:30:21;;;;;;;2.42;1.15;;;;;;;23.31;52.50;93445.84;4632448;31;20079;-92
2022/06/26 10:33:14;;;;;;;1.98;1.20;;;;;;;23.30;52.70;93440.84;4631600;30;20051;-91
2022/06/26 10:35:48;;;;;;;1.77;1.20;;;;;;;23.32;52.64;93446.56;4617574;31;20539;-92
2022/06/26 10:38:31;;;;;;;2.30;1.15;;;;;;;23.30;52.76;93436.06;4631047;30;20051;-92
2022/06/26 10:44:16;;;;;;;1.30;0.93;;;;;;;23.32;52.66;93441.06;4640849;30;20464;-91
2022/06/26 10:46:46;;;;;;;2.17;1.40;;;;;;;23.30;52.76;93441.59;4629493;30;20042;-92
2022/06/26 10:49:12;;;;;;;2.20;1.10;;;;;;;23.32;52.85;93438.28;4661187;30;20076;-91
2022/06/26 10:51:39;;;;;;;1.77;1.15;;;;;;;23.32;52.44;93441.78;4683171;30;20455;-92
2022/06/26 10:54:29;;;;;;;2.03;1.30;;;;;;;23.30;52.65;93443.63;4669089;30;20176;-91
2022/06/26 10:57:15;;;;;;;1.70;1.00;;;;;;;23.30;52.81;93438.09;4654242;30;20054;-92
2022/06/26 10:59:42;;;;;;;1.45;0.98;;;;;;;23.32;52.56;93436.28;4682783;30;20042;-92
2022/06/26 11:02:12;;;;;;;1.77;1.08;;;;;;;23.33;52.60;93437.75;4728617;30;20113;-91
2022/06/26 11:04:48;;;;;;;1.42;1.17;;;;;;;23.31;52.54;93445.84;4736920;30;20040;-92
2022/06/26 11:07:16;;;;;;;2.35;1.25;;;;;;;23.32;52.61;93439.03;4744315;30;20119;-92
2022/06/26 11:09:42;;;;;;;2.78;1.00;;;;;;;23.34;52.60;93441.25;4751470;30;20039;-92
2022/06/26 11:12:08;;;;;;;1.48;1.20;;;;;;;23.34;52.79;93446.78;4767477;30;20052;-92
2022/06/26 11:14:33;;;;;;;1.50;1.10;;;;;;;23.33;52.61;93440.50;4751775;30;20067;-91
2022/06/26 11:17:00;;;;;;;1.63;1.13;;;;;;;23.33;52.76;93443.28;4734078;30;20041;-92
2022/06/26 11:19:31;;;;;;;1.95;1.33;;;;;;;23.33;52.61;93439.78;4710823;30;20143;-92
2022/06/26 11:22:11;;;;;;;1.77;1.20;;;;;;;23.32;52.62;93439.03;4769350;30;20122;-92
2022/06/26 11:24:50;;;;;;;2.03;1.30;;;;;;;23.31;52.79;93440.31;4768357;30;20050;-91
2022/06/26 11:27:16;;;;;;;2.00;1.10;;;;;;;23.37;52.54;93442.94;4740063;30;20082;-91
2022/06/26 11:29:42;;;;;;;1.45;1.05;;;;;;;23.35;52.80;93440.72;4754810;30;20150;-91
2022/06/26 11:32:10;;;;;;;2.00;1.15;;;;;;;23.34;52.48;93436.47;4738072;30;20048;-92
2022/06/26 11:34:35;;;;;;;1.15;0.98;;;;;;;23.33;52.75;93432.22;4754304;30;20039;-92
2022/06/26 11:37:02;;;;;;;1.50;1.02;;;;;;;23.33;52.81;93440.50;4739045;30;20299;-92
2022/06/26 11:39:38;;;;;;;1.40;1.20;;;;;;;23.32;52.94;93441.78;4768656;30;20050;-91
2022/06/26 11:42:24;;;;;;;1.55;1.02;;;;;;;23.32;52.89;93441.06;4739396;30;20104;-91